Millers Tavrn, Virginia
Current Conditions -  °F | °C
As of 4:35 AM on Thursday 27 Nov 2014 (Local Time) from KXSA Reporting Station
Haze Haze  
Wind Chill:   Ceiling: 6500
Heat Index:   Visibility: 5mi
Dew Point: -1°   Wind: 0mph
Humidity: 93%   Direction: NA
Pressure: 30.04"   Gusts: NA
Location:  37.8283°N, 76.9455°W
Report Text: KXSA 270935Z AUTO 00000KT 5SM BR BKN065 BKN110 01/00 A3004 RMK AO2 T00051005
Loading
Personal Weather Stations






























Interactive Weather Map New forecast layout! Learn more

10-Day Weather Forecast

Advertisements
Track Severe Weather on mobile